LXP291 SCEL-SCCI
Flight info
| Callsign | LXP291 |
|---|---|
| Flight time | 3h 9m |
| Altitude | 33000 |
| Route | LINER UQ805 TIGNO UQ803 NEDAX |
| Aircraft | A321/M-SDE3FGHIRWY/LB1 |
Departure
| Time | 2026-04-24 19:54 |
|---|---|
| Airport | Comodoro Arturo Merino Benítez International Airport (SCEL) |
Arrival
| Time | 2026-04-24 23:04 |
|---|---|
| Airport | President Carlos Ibáñez International Airport (SCCI) |
| Time | Latitude | Longitude | Altitude | Speed | Heading |
|---|---|---|---|---|---|
| 2026-04-24 19:10 | -33.39597 | -70.79533 | 1565 ft | 0 kts | 177° |
| 2026-04-24 19:41 | -33.39594 | -70.79533 | 1564 ft | 2 kts | 177° |
| 2026-04-24 19:41 | -33.39570 | -70.79535 | 1564 ft | 3 kts | 177° |
| 2026-04-24 19:41 | -33.39547 | -70.79536 | 1564 ft | 2 kts | 177° |
| 2026-04-24 19:42 | -33.39525 | -70.79535 | 1564 ft | 3 kts | 203° |
| 2026-04-24 19:42 | -33.39509 | -70.79520 | 1564 ft | 3 kts | 252° |
| 2026-04-24 19:42 | -33.39507 | -70.79492 | 1564 ft | 3 kts | 277° |
| 2026-04-24 19:42 | -33.39510 | -70.79463 | 1564 ft | 3 kts | 277° |
| 2026-04-24 19:43 | -33.39512 | -70.79446 | 1564 ft | 0 kts | 267° |
| 2026-04-24 19:45 | -33.39512 | -70.79458 | 1564 ft | 4 kts | 268° |
| 2026-04-24 19:45 | -33.39514 | -70.79508 | 1564 ft | 9 kts | 267° |
| 2026-04-24 19:46 | -33.39517 | -70.79587 | 1564 ft | 9 kts | 266° |
| 2026-04-24 19:46 | -33.39520 | -70.79646 | 1564 ft | 7 kts | 267° |
| 2026-04-24 19:46 | -33.39523 | -70.79702 | 1564 ft | 7 kts | 267° |
| 2026-04-24 19:46 | -33.39525 | -70.79760 | 1564 ft | 8 kts | 268° |
| 2026-04-24 19:47 | -33.39528 | -70.79849 | 1565 ft | 13 kts | 268° |
| 2026-04-24 19:47 | -33.39514 | -70.79933 | 1565 ft | 8 kts | 324° |
| 2026-04-24 19:47 | -33.39473 | -70.79943 | 1565 ft | 4 kts | 355° |
| 2026-04-24 19:47 | -33.39426 | -70.79947 | 1565 ft | 10 kts | 357° |
| 2026-04-24 19:48 | -33.39351 | -70.79961 | 1565 ft | 9 kts | 323° |
| 2026-04-24 19:48 | -33.39311 | -70.80022 | 1566 ft | 11 kts | 315° |
| 2026-04-24 19:48 | -33.39136 | -70.80067 | 1566 ft | 11 kts | 357° |
| 2026-04-24 19:49 | -33.38990 | -70.80074 | 1567 ft | 14 kts | 357° |
| 2026-04-24 19:49 | -33.38828 | -70.80083 | 1567 ft | 10 kts | 358° |
| 2026-04-24 19:50 | -33.38417 | -70.80105 | 1566 ft | 21 kts | 358° |
| 2026-04-24 19:50 | -33.38275 | -70.80113 | 1566 ft | 20 kts | 356° |
| 2026-04-24 19:51 | -33.38026 | -70.80127 | 1566 ft | 16 kts | 357° |
| 2026-04-24 19:51 | -33.37920 | -70.80132 | 1566 ft | 14 kts | 357° |
| 2026-04-24 19:52 | -33.37645 | -70.80147 | 1566 ft | 24 kts | 357° |
| 2026-04-24 19:52 | -33.37483 | -70.80155 | 1566 ft | 22 kts | 358° |
| 2026-04-24 19:52 | -33.37334 | -70.80163 | 1567 ft | 20 kts | 357° |
| 2026-04-24 19:52 | -33.37199 | -70.80169 | 1567 ft | 19 kts | 358° |
| 2026-04-24 19:53 | -33.37108 | -70.80239 | 1569 ft | 15 kts | 289° |
| 2026-04-24 19:53 | -33.37145 | -70.80364 | 1574 ft | 25 kts | 212° |
| 2026-04-24 19:53 | -33.38321 | -70.80312 | 1573 ft | 138 kts | 177° |
| 2026-04-24 19:54 | -33.39423 | -70.80251 | 1574 ft | 177 kts | 177° |
| 2026-04-24 19:54 | -33.40690 | -70.80182 | 1998 ft | 183 kts | 176° |
| 2026-04-24 19:54 | -33.41978 | -70.80114 | 2506 ft | 190 kts | 176° |
| 2026-04-24 19:54 | -33.43337 | -70.80035 | 2787 ft | 205 kts | 176° |
| 2026-04-24 19:55 | -33.44307 | -70.79978 | 2869 ft | 217 kts | 176° |
| 2026-04-24 19:55 | -33.46452 | -70.79860 | 3085 ft | 247 kts | 176° |
| 2026-04-24 19:55 | -33.48210 | -70.79770 | 3571 ft | 257 kts | 178° |
| 2026-04-24 19:55 | -33.50016 | -70.79677 | 4183 ft | 262 kts | 178° |
| 2026-04-24 19:56 | -33.51847 | -70.79577 | 4802 ft | 266 kts | 178° |
| 2026-04-24 19:56 | -33.53717 | -70.79469 | 5414 ft | 271 kts | 177° |
| 2026-04-24 19:56 | -33.55610 | -70.79300 | 6043 ft | 274 kts | 176° |
| 2026-04-24 19:56 | -33.57519 | -70.79091 | 6653 ft | 277 kts | 176° |
| 2026-04-24 19:57 | -33.59428 | -70.78872 | 7236 ft | 281 kts | 175° |
| 2026-04-24 19:57 | -33.61387 | -70.78644 | 7819 ft | 285 kts | 175° |
| 2026-04-24 19:57 | -33.63370 | -70.78418 | 8392 ft | 288 kts | 175° |
| 2026-04-24 19:57 | -33.65367 | -70.78195 | 8936 ft | 290 kts | 175° |
| 2026-04-24 19:58 | -33.67386 | -70.77972 | 9443 ft | 293 kts | 176° |
| 2026-04-24 19:58 | -33.69430 | -70.77745 | 9976 ft | 297 kts | 176° |
| 2026-04-24 19:58 | -33.71512 | -70.77516 | 10309 ft | 309 kts | 176° |
| 2026-04-24 19:58 | -33.73713 | -70.77279 | 10455 ft | 326 kts | 176° |
| 2026-04-24 19:59 | -33.76040 | -70.77029 | 10588 ft | 344 kts | 176° |
| 2026-04-24 19:59 | -33.78446 | -70.76771 | 10713 ft | 361 kts | 176° |
| 2026-04-24 19:59 | -33.81000 | -70.76495 | 10851 ft | 376 kts | 176° |
| 2026-04-24 19:59 | -33.83659 | -70.76206 | 10992 ft | 391 kts | 176° |
| 2026-04-24 20:00 | -33.86392 | -70.75907 | 11397 ft | 397 kts | 176° |
| 2026-04-24 20:00 | -33.89154 | -70.75600 | 11885 ft | 400 kts | 176° |
| 2026-04-24 20:00 | -33.91932 | -70.75343 | 12373 ft | 402 kts | 181° |
| 2026-04-24 20:00 | -33.94722 | -70.75568 | 12857 ft | 403 kts | 189° |
| 2026-04-24 20:01 | -33.97508 | -70.76039 | 13326 ft | 406 kts | 190° |
| 2026-04-24 20:01 | -34.00274 | -70.76510 | 13768 ft | 408 kts | 190° |
| 2026-04-24 20:01 | -34.03095 | -70.76991 | 14210 ft | 411 kts | 191° |
| 2026-04-24 20:01 | -34.05934 | -70.77474 | 14672 ft | 413 kts | 191° |
| 2026-04-24 20:02 | -34.07821 | -70.77793 | 14963 ft | 415 kts | 191° |
| 2026-04-24 20:02 | -34.11662 | -70.78438 | 15542 ft | 418 kts | 191° |
| 2026-04-24 20:02 | -34.14559 | -70.78925 | 15976 ft | 421 kts | 191° |
| 2026-04-24 20:02 | -34.17463 | -70.79416 | 16413 ft | 423 kts | 191° |
| 2026-04-24 20:03 | -34.20386 | -70.79914 | 16819 ft | 425 kts | 191° |
| 2026-04-24 20:03 | -34.23286 | -70.80410 | 17211 ft | 428 kts | 192° |
| 2026-04-24 20:03 | -34.26241 | -70.80912 | 17622 ft | 430 kts | 191° |
| 2026-04-24 20:03 | -34.29214 | -70.81415 | 18003 ft | 433 kts | 192° |
| 2026-04-24 20:04 | -34.32204 | -70.81922 | 18401 ft | 434 kts | 192° |
| 2026-04-24 20:04 | -34.35204 | -70.82430 | 18807 ft | 436 kts | 192° |
| 2026-04-24 20:04 | -34.38216 | -70.82940 | 19195 ft | 438 kts | 192° |
| 2026-04-24 20:04 | -34.41236 | -70.83450 | 19590 ft | 439 kts | 192° |
| 2026-04-24 20:05 | -34.44225 | -70.83960 | 19950 ft | 441 kts | 192° |
| 2026-04-24 20:05 | -34.47269 | -70.84481 | 20304 ft | 443 kts | 192° |
| 2026-04-24 20:05 | -34.50327 | -70.85004 | 20670 ft | 444 kts | 192° |
| 2026-04-24 20:05 | -34.53394 | -70.85529 | 21041 ft | 446 kts | 192° |
| 2026-04-24 20:06 | -34.56476 | -70.86051 | 21399 ft | 448 kts | 193° |
| 2026-04-24 20:06 | -34.59570 | -70.86572 | 21743 ft | 450 kts | 193° |
| 2026-04-24 20:06 | -34.62671 | -70.87096 | 22092 ft | 451 kts | 193° |
| 2026-04-24 20:06 | -34.65780 | -70.87628 | 22452 ft | 452 kts | 193° |
| 2026-04-24 20:07 | -34.67852 | -70.87986 | 22662 ft | 454 kts | 193° |
| 2026-04-24 20:07 | -34.72001 | -70.88703 | 23099 ft | 456 kts | 193° |
| 2026-04-24 20:07 | -34.75147 | -70.89243 | 23404 ft | 458 kts | 193° |
| 2026-04-24 20:07 | -34.78304 | -70.89782 | 23708 ft | 459 kts | 193° |
| 2026-04-24 20:08 | -34.81475 | -70.90323 | 24011 ft | 461 kts | 193° |
| 2026-04-24 20:08 | -34.84657 | -70.90866 | 24295 ft | 462 kts | 193° |
| 2026-04-24 20:08 | -34.87846 | -70.91413 | 24599 ft | 464 kts | 193° |
| 2026-04-24 20:08 | -34.91049 | -70.91964 | 24892 ft | 465 kts | 193° |
| 2026-04-24 20:09 | -34.94256 | -70.92516 | 25192 ft | 466 kts | 193° |
| 2026-04-24 20:09 | -34.97421 | -70.93062 | 25521 ft | 465 kts | 194° |
| 2026-04-24 20:09 | -35.00621 | -70.93612 | 25923 ft | 463 kts | 194° |
| 2026-04-24 20:09 | -35.03804 | -70.94159 | 26295 ft | 462 kts | 194° |
| 2026-04-24 20:10 | -35.06979 | -70.94707 | 26663 ft | 460 kts | 194° |
| 2026-04-24 20:10 | -35.10149 | -70.95252 | 27016 ft | 459 kts | 194° |
| 2026-04-24 20:10 | -35.13314 | -70.95796 | 27364 ft | 459 kts | 194° |
| 2026-04-24 20:10 | -35.16473 | -70.96341 | 27748 ft | 458 kts | 194° |
| 2026-04-24 20:11 | -35.19619 | -70.96886 | 28100 ft | 456 kts | 194° |
| 2026-04-24 20:11 | -35.22714 | -70.97424 | 28438 ft | 455 kts | 194° |
| 2026-04-24 20:11 | -35.25841 | -70.97966 | 28771 ft | 454 kts | 194° |
| 2026-04-24 20:11 | -35.28965 | -70.98508 | 29074 ft | 453 kts | 194° |
| 2026-04-24 20:12 | -35.32079 | -70.99045 | 29384 ft | 452 kts | 194° |
| 2026-04-24 20:12 | -35.35189 | -70.99583 | 29645 ft | 451 kts | 194° |
| 2026-04-24 20:12 | -35.38297 | -71.00124 | 29883 ft | 451 kts | 195° |
| 2026-04-24 20:12 | -35.41395 | -71.00667 | 30188 ft | 450 kts | 195° |
| 2026-04-24 20:13 | -35.44494 | -71.01212 | 30492 ft | 449 kts | 195° |
| 2026-04-24 20:13 | -35.47540 | -71.01746 | 30799 ft | 448 kts | 195° |
| 2026-04-24 20:13 | -35.50627 | -71.02286 | 31051 ft | 448 kts | 195° |
| 2026-04-24 20:13 | -35.53716 | -71.02828 | 31343 ft | 448 kts | 195° |
| 2026-04-24 20:14 | -35.56795 | -71.03365 | 31623 ft | 447 kts | 195° |
| 2026-04-24 20:14 | -35.59867 | -71.03898 | 31872 ft | 446 kts | 195° |
| 2026-04-24 20:14 | -35.62942 | -71.04432 | 32155 ft | 446 kts | 195° |
| 2026-04-24 20:14 | -35.66005 | -71.04966 | 32420 ft | 445 kts | 195° |
| 2026-04-24 20:15 | -35.69070 | -71.05504 | 32675 ft | 444 kts | 195° |
| 2026-04-24 20:15 | -35.72085 | -71.06036 | 32944 ft | 444 kts | 195° |
| 2026-04-24 20:15 | -35.75144 | -71.06577 | 33166 ft | 444 kts | 195° |
| 2026-04-24 20:16 | -35.81272 | -71.07663 | 33211 ft | 446 kts | 195° |
| 2026-04-24 20:16 | -35.87411 | -71.08743 | 33215 ft | 445 kts | 195° |
| 2026-04-24 20:17 | -35.93545 | -71.09817 | 33209 ft | 446 kts | 195° |
| 2026-04-24 20:17 | -36.02718 | -71.11438 | 33212 ft | 446 kts | 194° |
| 2026-04-24 20:18 | -36.08871 | -71.12528 | 33214 ft | 446 kts | 194° |
| 2026-04-24 20:18 | -36.15014 | -71.13616 | 33210 ft | 446 kts | 194° |
| 2026-04-24 20:19 | -36.21155 | -71.14703 | 33214 ft | 446 kts | 194° |
| 2026-04-24 20:19 | -36.27256 | -71.15800 | 33222 ft | 446 kts | 194° |
| 2026-04-24 20:20 | -36.33400 | -71.16900 | 33226 ft | 446 kts | 194° |
| 2026-04-24 20:20 | -36.39546 | -71.17996 | 33229 ft | 447 kts | 194° |
| 2026-04-24 20:21 | -36.45683 | -71.19087 | 33231 ft | 444 kts | 194° |
| 2026-04-24 20:21 | -36.51760 | -71.20168 | 33222 ft | 444 kts | 194° |
| 2026-04-24 20:22 | -36.57879 | -71.21268 | 33220 ft | 444 kts | 194° |
| 2026-04-24 20:22 | -36.64003 | -71.22376 | 33224 ft | 444 kts | 194° |
| 2026-04-24 20:23 | -36.70121 | -71.23480 | 33231 ft | 445 kts | 194° |
| 2026-04-24 20:23 | -36.76203 | -71.24570 | 33231 ft | 444 kts | 194° |
| 2026-04-24 20:24 | -36.82317 | -71.25673 | 33232 ft | 444 kts | 194° |
| 2026-04-24 20:24 | -36.88429 | -71.26781 | 33237 ft | 444 kts | 194° |
| 2026-04-24 20:25 | -36.94537 | -71.27881 | 33236 ft | 444 kts | 194° |
| 2026-04-24 20:25 | -37.00606 | -71.28983 | 33237 ft | 444 kts | 194° |
| 2026-04-24 20:26 | -37.06721 | -71.30095 | 33243 ft | 444 kts | 194° |
| 2026-04-24 20:26 | -37.12833 | -71.31204 | 33244 ft | 444 kts | 194° |
| 2026-04-24 20:27 | -37.18939 | -71.32320 | 33244 ft | 443 kts | 193° |
| 2026-04-24 20:27 | -37.25000 | -71.33434 | 33249 ft | 443 kts | 194° |
| 2026-04-24 20:28 | -37.31094 | -71.34549 | 33248 ft | 442 kts | 193° |
| 2026-04-24 20:28 | -37.37185 | -71.35654 | 33250 ft | 442 kts | 193° |
| 2026-04-24 20:29 | -37.43271 | -71.36770 | 33252 ft | 441 kts | 194° |
| 2026-04-24 20:29 | -37.49342 | -71.37890 | 33246 ft | 441 kts | 193° |
| 2026-04-24 20:30 | -37.55367 | -71.39000 | 33246 ft | 441 kts | 193° |
| 2026-04-24 20:30 | -37.61439 | -71.40120 | 33251 ft | 441 kts | 193° |
| 2026-04-24 20:31 | -37.67507 | -71.41243 | 33251 ft | 441 kts | 193° |
| 2026-04-24 20:31 | -37.73567 | -71.42363 | 33251 ft | 440 kts | 193° |
| 2026-04-24 20:32 | -37.79582 | -71.43474 | 33251 ft | 440 kts | 193° |
| 2026-04-24 20:32 | -37.85638 | -71.44601 | 33255 ft | 440 kts | 193° |
| 2026-04-24 20:33 | -37.91685 | -71.45726 | 33262 ft | 439 kts | 193° |
| 2026-04-24 20:33 | -37.97737 | -71.46855 | 33254 ft | 439 kts | 193° |
| 2026-04-24 20:34 | -38.03741 | -71.47976 | 33261 ft | 439 kts | 193° |
| 2026-04-24 20:34 | -38.09779 | -71.49107 | 33262 ft | 438 kts | 192° |
| 2026-04-24 20:35 | -38.15816 | -71.50235 | 33263 ft | 438 kts | 193° |
| 2026-04-24 20:35 | -38.21852 | -71.51369 | 33264 ft | 438 kts | 193° |
| 2026-04-24 20:36 | -38.27846 | -71.52499 | 33262 ft | 438 kts | 193° |
| 2026-04-24 20:36 | -38.33882 | -71.53623 | 33249 ft | 438 kts | 192° |
| 2026-04-24 20:37 | -38.39918 | -71.54761 | 33248 ft | 438 kts | 193° |
| 2026-04-24 20:37 | -38.45945 | -71.55909 | 33241 ft | 438 kts | 193° |
| 2026-04-24 20:38 | -38.51936 | -71.57043 | 33240 ft | 439 kts | 193° |
| 2026-04-24 20:38 | -38.57976 | -71.58175 | 33235 ft | 439 kts | 193° |
| 2026-04-24 20:39 | -38.64024 | -71.59324 | 33241 ft | 439 kts | 193° |
| 2026-04-24 20:39 | -38.70068 | -71.60473 | 33244 ft | 439 kts | 193° |
| 2026-04-24 20:40 | -38.76117 | -71.61622 | 33243 ft | 439 kts | 193° |
| 2026-04-24 20:40 | -38.82125 | -71.62773 | 33240 ft | 440 kts | 193° |
| 2026-04-24 20:41 | -38.88177 | -71.63930 | 33242 ft | 440 kts | 193° |
| 2026-04-24 20:41 | -38.94232 | -71.65087 | 33230 ft | 440 kts | 193° |
| 2026-04-24 20:42 | -39.00284 | -71.66247 | 33229 ft | 440 kts | 193° |
| 2026-04-24 20:42 | -39.06335 | -71.67420 | 33225 ft | 440 kts | 193° |
| 2026-04-24 20:43 | -39.12344 | -71.68572 | 33218 ft | 440 kts | 193° |
| 2026-04-24 20:43 | -39.18398 | -71.69734 | 33214 ft | 440 kts | 193° |
| 2026-04-24 20:44 | -39.24452 | -71.70898 | 33218 ft | 440 kts | 193° |
| 2026-04-24 20:44 | -39.30504 | -71.72072 | 33217 ft | 440 kts | 193° |
| 2026-04-24 20:45 | -39.36516 | -71.73240 | 33211 ft | 440 kts | 193° |
| 2026-04-24 20:45 | -39.42566 | -71.74413 | 33207 ft | 439 kts | 193° |
| 2026-04-24 20:46 | -39.48611 | -71.75604 | 33201 ft | 440 kts | 193° |
| 2026-04-24 20:46 | -39.54672 | -71.76782 | 33199 ft | 440 kts | 193° |
| 2026-04-24 20:47 | -39.60693 | -71.77947 | 33198 ft | 441 kts | 193° |
| 2026-04-24 20:47 | -39.66756 | -71.79124 | 33193 ft | 440 kts | 193° |
| 2026-04-24 20:48 | -39.72819 | -71.80312 | 33194 ft | 441 kts | 193° |
| 2026-04-24 20:48 | -39.78891 | -71.81501 | 33182 ft | 441 kts | 193° |
| 2026-04-24 20:49 | -39.84920 | -71.82689 | 33177 ft | 441 kts | 193° |
| 2026-04-24 20:49 | -39.90988 | -71.83880 | 33174 ft | 441 kts | 193° |
| 2026-04-24 20:50 | -39.97063 | -71.85083 | 33176 ft | 442 kts | 193° |
| 2026-04-24 20:50 | -40.03145 | -71.86284 | 33185 ft | 442 kts | 193° |
| 2026-04-24 20:51 | -40.09226 | -71.87482 | 33184 ft | 442 kts | 193° |
| 2026-04-24 20:51 | -40.15267 | -71.88672 | 33188 ft | 441 kts | 193° |
| 2026-04-24 20:52 | -40.21338 | -71.89885 | 33185 ft | 441 kts | 193° |
| 2026-04-24 20:52 | -40.27417 | -71.91101 | 33184 ft | 442 kts | 193° |
| 2026-04-24 20:53 | -40.33494 | -71.92319 | 33192 ft | 442 kts | 193° |
| 2026-04-24 20:53 | -40.39564 | -71.93529 | 33187 ft | 441 kts | 193° |
| 2026-04-24 20:54 | -40.45597 | -71.94731 | 33190 ft | 441 kts | 193° |
| 2026-04-24 20:54 | -40.51669 | -71.95952 | 33189 ft | 441 kts | 193° |
| 2026-04-24 20:55 | -40.57730 | -71.97169 | 33190 ft | 440 kts | 193° |
| 2026-04-24 20:55 | -40.63749 | -71.98370 | 33189 ft | 441 kts | 194° |
| 2026-04-24 20:56 | -40.69800 | -71.99590 | 33189 ft | 439 kts | 194° |
| 2026-04-24 20:56 | -40.75844 | -72.00814 | 33189 ft | 439 kts | 194° |
| 2026-04-24 20:57 | -40.81880 | -72.02034 | 33196 ft | 439 kts | 194° |
| 2026-04-24 20:57 | -40.87909 | -72.03256 | 33203 ft | 438 kts | 194° |
| 2026-04-24 20:58 | -40.93891 | -72.04467 | 33207 ft | 438 kts | 194° |
| 2026-04-24 20:58 | -40.99906 | -72.05694 | 33212 ft | 437 kts | 195° |
| 2026-04-24 20:59 | -41.05919 | -72.06922 | 33217 ft | 437 kts | 195° |
| 2026-04-24 20:59 | -41.11932 | -72.08152 | 33215 ft | 437 kts | 195° |
| 2026-04-24 21:00 | -41.17910 | -72.09374 | 33225 ft | 437 kts | 195° |
| 2026-04-24 21:00 | -41.23920 | -72.10604 | 33226 ft | 436 kts | 195° |
| 2026-04-24 21:01 | -41.29915 | -72.11815 | 33223 ft | 436 kts | 194° |
| 2026-04-24 21:01 | -41.35912 | -72.12787 | 33213 ft | 437 kts | 193° |
| 2026-04-24 21:02 | -41.41968 | -72.13649 | 33218 ft | 438 kts | 193° |
| 2026-04-24 21:02 | -41.48024 | -72.14549 | 33223 ft | 437 kts | 194° |
| 2026-04-24 21:03 | -41.54072 | -72.15492 | 33229 ft | 437 kts | 194° |
| 2026-04-24 21:03 | -41.60058 | -72.16445 | 33238 ft | 436 kts | 194° |
| 2026-04-24 21:04 | -41.66093 | -72.17396 | 33239 ft | 436 kts | 194° |
| 2026-04-24 21:04 | -41.70127 | -72.18028 | 33234 ft | 437 kts | 194° |
| 2026-04-24 21:05 | -41.83603 | -72.20132 | 33234 ft | 437 kts | 194° |
| 2026-04-24 21:06 | -41.89649 | -72.21086 | 33232 ft | 438 kts | 194° |
| 2026-04-24 21:06 | -41.95656 | -72.22035 | 33230 ft | 437 kts | 194° |
| 2026-04-24 21:07 | -42.01698 | -72.22994 | 33232 ft | 437 kts | 194° |
| 2026-04-24 21:07 | -42.07730 | -72.23954 | 33235 ft | 437 kts | 194° |
| 2026-04-24 21:08 | -42.13769 | -72.24904 | 33230 ft | 436 kts | 194° |
| 2026-04-24 21:08 | -42.19790 | -72.25867 | 33231 ft | 436 kts | 194° |
| 2026-04-24 21:09 | -42.25773 | -72.26825 | 33232 ft | 436 kts | 194° |
| 2026-04-24 21:09 | -42.31802 | -72.27788 | 33240 ft | 436 kts | 194° |
| 2026-04-24 21:10 | -42.37828 | -72.28745 | 33237 ft | 435 kts | 194° |
| 2026-04-24 21:10 | -42.43833 | -72.29711 | 33234 ft | 434 kts | 194° |
| 2026-04-24 21:11 | -42.49791 | -72.30678 | 33244 ft | 434 kts | 194° |
| 2026-04-24 21:11 | -42.55790 | -72.31648 | 33241 ft | 433 kts | 194° |
| 2026-04-24 21:12 | -42.61773 | -72.32612 | 33244 ft | 433 kts | 194° |
| 2026-04-24 21:12 | -42.67758 | -72.33578 | 33246 ft | 433 kts | 194° |
| 2026-04-24 21:13 | -42.73728 | -72.34544 | 33240 ft | 432 kts | 194° |
| 2026-04-24 21:13 | -42.79643 | -72.35498 | 33242 ft | 431 kts | 194° |
| 2026-04-24 21:14 | -42.85596 | -72.36459 | 33250 ft | 431 kts | 194° |
| 2026-04-24 21:14 | -42.91533 | -72.37431 | 33262 ft | 430 kts | 194° |
| 2026-04-24 21:15 | -42.97469 | -72.38405 | 33262 ft | 430 kts | 194° |
| 2026-04-24 21:15 | -43.03356 | -72.39365 | 33244 ft | 428 kts | 194° |
| 2026-04-24 21:16 | -43.09271 | -72.40340 | 33243 ft | 428 kts | 194° |
| 2026-04-24 21:16 | -43.15180 | -72.41311 | 33238 ft | 427 kts | 194° |
| 2026-04-24 21:17 | -43.21081 | -72.42284 | 33241 ft | 426 kts | 194° |
| 2026-04-24 21:17 | -43.26922 | -72.43245 | 33228 ft | 425 kts | 194° |
| 2026-04-24 21:18 | -43.32784 | -72.44211 | 33223 ft | 424 kts | 194° |
| 2026-04-24 21:18 | -43.38644 | -72.45181 | 33223 ft | 424 kts | 194° |
| 2026-04-24 21:19 | -43.44495 | -72.46148 | 33215 ft | 423 kts | 194° |
| 2026-04-24 21:19 | -43.50329 | -72.47120 | 33206 ft | 422 kts | 194° |
| 2026-04-24 21:20 | -43.59027 | -72.48563 | 33199 ft | 421 kts | 194° |
| 2026-04-24 21:21 | -43.64840 | -72.49530 | 33194 ft | 420 kts | 194° |
| 2026-04-24 21:21 | -43.70653 | -72.50500 | 33193 ft | 421 kts | 194° |
| 2026-04-24 21:22 | -43.76427 | -72.51477 | 33195 ft | 421 kts | 194° |
| 2026-04-24 21:22 | -43.82226 | -72.52456 | 33194 ft | 419 kts | 194° |
| 2026-04-24 21:23 | -43.88017 | -72.53422 | 33183 ft | 419 kts | 194° |
| 2026-04-24 21:23 | -43.93806 | -72.54404 | 33175 ft | 419 kts | 194° |
| 2026-04-24 21:24 | -43.99589 | -72.55387 | 33174 ft | 419 kts | 194° |
| 2026-04-24 21:24 | -44.05374 | -72.56363 | 33184 ft | 418 kts | 194° |
| 2026-04-24 21:25 | -44.11117 | -72.57337 | 33187 ft | 418 kts | 194° |
| 2026-04-24 21:25 | -44.16887 | -72.58324 | 33186 ft | 417 kts | 194° |
| 2026-04-24 21:26 | -44.22649 | -72.59304 | 33180 ft | 417 kts | 194° |
| 2026-04-24 21:26 | -44.28401 | -72.60273 | 33177 ft | 416 kts | 194° |
| 2026-04-24 21:27 | -44.34113 | -72.61252 | 33182 ft | 416 kts | 194° |
| 2026-04-24 21:27 | -44.39862 | -72.62239 | 33177 ft | 416 kts | 194° |
| 2026-04-24 21:28 | -44.45599 | -72.63227 | 33172 ft | 416 kts | 194° |
| 2026-04-24 21:28 | -44.51341 | -72.64208 | 33158 ft | 415 kts | 194° |
| 2026-04-24 21:29 | -44.57042 | -72.65191 | 33160 ft | 416 kts | 194° |
| 2026-04-24 21:29 | -44.62784 | -72.66175 | 33151 ft | 416 kts | 194° |
| 2026-04-24 21:30 | -44.68520 | -72.67159 | 33147 ft | 414 kts | 194° |
| 2026-04-24 21:30 | -44.74244 | -72.68154 | 33139 ft | 415 kts | 194° |
| 2026-04-24 21:31 | -44.79929 | -72.69144 | 33135 ft | 414 kts | 194° |
| 2026-04-24 21:31 | -44.85640 | -72.70133 | 33130 ft | 414 kts | 194° |
| 2026-04-24 21:32 | -44.91348 | -72.71126 | 33121 ft | 414 kts | 194° |
| 2026-04-24 21:32 | -44.97054 | -72.72122 | 33110 ft | 413 kts | 194° |
| 2026-04-24 21:33 | -45.02754 | -72.73120 | 33099 ft | 412 kts | 194° |
| 2026-04-24 21:33 | -45.08414 | -72.74109 | 33085 ft | 412 kts | 194° |
| 2026-04-24 21:34 | -45.14100 | -72.75101 | 33078 ft | 412 kts | 194° |
| 2026-04-24 21:34 | -45.19787 | -72.76102 | 33075 ft | 412 kts | 194° |
| 2026-04-24 21:35 | -45.25476 | -72.77110 | 33067 ft | 411 kts | 194° |
| 2026-04-24 21:35 | -45.31121 | -72.78100 | 33054 ft | 411 kts | 194° |
| 2026-04-24 21:36 | -45.36804 | -72.79108 | 33055 ft | 411 kts | 194° |
| 2026-04-24 21:36 | -45.42477 | -72.80121 | 33056 ft | 411 kts | 194° |
| 2026-04-24 21:37 | -45.48143 | -72.81137 | 33060 ft | 411 kts | 194° |
| 2026-04-24 21:37 | -45.53774 | -72.82129 | 33053 ft | 410 kts | 194° |
| 2026-04-24 21:38 | -45.59435 | -72.83132 | 33048 ft | 410 kts | 194° |
| 2026-04-24 21:38 | -45.65084 | -72.84144 | 33042 ft | 409 kts | 194° |
| 2026-04-24 21:39 | -45.70736 | -72.85168 | 33044 ft | 409 kts | 194° |
| 2026-04-24 21:39 | -45.76351 | -72.86179 | 33043 ft | 409 kts | 194° |
| 2026-04-24 21:40 | -45.81990 | -72.87179 | 33038 ft | 408 kts | 194° |
| 2026-04-24 21:40 | -45.87620 | -72.88196 | 33037 ft | 407 kts | 194° |
| 2026-04-24 21:41 | -45.93249 | -72.89213 | 33041 ft | 408 kts | 194° |
| 2026-04-24 21:41 | -45.98879 | -72.90237 | 33038 ft | 408 kts | 194° |
| 2026-04-24 21:42 | -46.04471 | -72.91253 | 33038 ft | 407 kts | 194° |
| 2026-04-24 21:42 | -46.10083 | -72.92269 | 33036 ft | 406 kts | 194° |
| 2026-04-24 21:43 | -46.15686 | -72.93277 | 33046 ft | 405 kts | 194° |
| 2026-04-24 21:43 | -46.21263 | -72.94292 | 33036 ft | 404 kts | 194° |
| 2026-04-24 21:44 | -46.26799 | -72.95304 | 33039 ft | 403 kts | 194° |
| 2026-04-24 21:44 | -46.32350 | -72.96328 | 33035 ft | 402 kts | 194° |
| 2026-04-24 21:45 | -46.37898 | -72.97359 | 33021 ft | 402 kts | 194° |
| 2026-04-24 21:45 | -46.43456 | -72.98383 | 33019 ft | 403 kts | 194° |
| 2026-04-24 21:46 | -46.49017 | -72.99400 | 33016 ft | 402 kts | 194° |
| 2026-04-24 21:46 | -46.54536 | -73.00416 | 33022 ft | 403 kts | 194° |
| 2026-04-24 21:47 | -46.60086 | -73.01442 | 33026 ft | 402 kts | 194° |
| 2026-04-24 21:47 | -46.65633 | -73.02476 | 33022 ft | 402 kts | 194° |
| 2026-04-24 21:48 | -46.71139 | -73.03505 | 33022 ft | 402 kts | 194° |
| 2026-04-24 21:48 | -46.76683 | -73.04537 | 33025 ft | 401 kts | 194° |
| 2026-04-24 21:49 | -46.82228 | -73.05562 | 33034 ft | 402 kts | 194° |
| 2026-04-24 21:49 | -46.87773 | -73.06591 | 33032 ft | 401 kts | 194° |
| 2026-04-24 21:50 | -46.93261 | -73.07617 | 33027 ft | 399 kts | 194° |
| 2026-04-24 21:50 | -46.98771 | -73.08654 | 33022 ft | 400 kts | 194° |
| 2026-04-24 21:51 | -47.04287 | -73.09688 | 33021 ft | 400 kts | 194° |
| 2026-04-24 21:51 | -47.09794 | -73.10739 | 33022 ft | 399 kts | 194° |
| 2026-04-24 21:52 | -47.15294 | -73.11789 | 33019 ft | 398 kts | 194° |
| 2026-04-24 21:52 | -47.20744 | -73.12812 | 33016 ft | 398 kts | 194° |
| 2026-04-24 21:53 | -47.26237 | -73.13856 | 33011 ft | 398 kts | 194° |
| 2026-04-24 21:53 | -47.31736 | -73.14911 | 33009 ft | 399 kts | 194° |
| 2026-04-24 21:54 | -47.37223 | -73.15968 | 33013 ft | 397 kts | 194° |
| 2026-04-24 21:54 | -47.42664 | -73.17013 | 33015 ft | 397 kts | 194° |
| 2026-04-24 21:55 | -47.48136 | -73.18052 | 33013 ft | 397 kts | 194° |
| 2026-04-24 21:55 | -47.53620 | -73.19092 | 33012 ft | 396 kts | 194° |
| 2026-04-24 21:56 | -47.59078 | -73.20143 | 33003 ft | 395 kts | 194° |
| 2026-04-24 21:56 | -47.64511 | -73.21190 | 33008 ft | 396 kts | 194° |
| 2026-04-24 21:57 | -47.69970 | -73.22261 | 33004 ft | 396 kts | 194° |
| 2026-04-24 21:57 | -47.75432 | -73.23335 | 33006 ft | 396 kts | 194° |
| 2026-04-24 21:58 | -47.80894 | -73.24393 | 32997 ft | 395 kts | 194° |
| 2026-04-24 21:58 | -47.86311 | -73.25437 | 33001 ft | 395 kts | 194° |
| 2026-04-24 21:59 | -47.91759 | -73.26497 | 33003 ft | 394 kts | 194° |
| 2026-04-24 21:59 | -47.97198 | -73.27563 | 32998 ft | 394 kts | 194° |
| 2026-04-24 22:00 | -48.02631 | -73.28624 | 32997 ft | 393 kts | 194° |
| 2026-04-24 22:00 | -48.08052 | -73.29689 | 32997 ft | 392 kts | 194° |
| 2026-04-24 22:01 | -48.13428 | -73.30748 | 32995 ft | 392 kts | 194° |
| 2026-04-24 22:01 | -48.18829 | -73.31819 | 32987 ft | 391 kts | 194° |
| 2026-04-24 22:02 | -48.24220 | -73.32878 | 32978 ft | 390 kts | 194° |
| 2026-04-24 22:02 | -48.29607 | -73.33943 | 32967 ft | 390 kts | 194° |
| 2026-04-24 22:03 | -48.34959 | -73.35012 | 32965 ft | 391 kts | 194° |
| 2026-04-24 22:03 | -48.40355 | -73.36082 | 32962 ft | 391 kts | 194° |
| 2026-04-24 22:04 | -48.45750 | -73.37149 | 32957 ft | 391 kts | 194° |
| 2026-04-24 22:04 | -48.51147 | -73.38230 | 32960 ft | 391 kts | 194° |
| 2026-04-24 22:05 | -48.56509 | -73.39300 | 32959 ft | 391 kts | 194° |
| 2026-04-24 22:05 | -48.61903 | -73.40378 | 32956 ft | 391 kts | 194° |
| 2026-04-24 22:06 | -48.67293 | -73.41465 | 32951 ft | 390 kts | 194° |
| 2026-04-24 22:06 | -48.72667 | -73.42554 | 32941 ft | 389 kts | 194° |
| 2026-04-24 22:07 | -48.78011 | -73.43635 | 32936 ft | 390 kts | 194° |
| 2026-04-24 22:07 | -48.83391 | -73.44724 | 32930 ft | 389 kts | 194° |
| 2026-04-24 22:08 | -48.88762 | -73.45806 | 32926 ft | 390 kts | 194° |
| 2026-04-24 22:08 | -48.94136 | -73.46893 | 32924 ft | 389 kts | 194° |
| 2026-04-24 22:09 | -48.99468 | -73.47972 | 32919 ft | 389 kts | 194° |
| 2026-04-24 22:09 | -49.04836 | -73.49066 | 32914 ft | 390 kts | 194° |
| 2026-04-24 22:10 | -49.10221 | -73.50171 | 32923 ft | 391 kts | 194° |
| 2026-04-24 22:10 | -49.15601 | -73.51282 | 32928 ft | 390 kts | 194° |
| 2026-04-24 22:11 | -49.20971 | -73.52379 | 32930 ft | 389 kts | 194° |
| 2026-04-24 22:11 | -49.26297 | -73.53467 | 32928 ft | 388 kts | 194° |
| 2026-04-24 22:12 | -49.31652 | -73.54572 | 32925 ft | 388 kts | 194° |
| 2026-04-24 22:12 | -49.37000 | -73.55671 | 32921 ft | 388 kts | 193° |
| 2026-04-24 22:13 | -49.42342 | -73.56776 | 32919 ft | 387 kts | 194° |
| 2026-04-24 22:13 | -49.47641 | -73.57889 | 32924 ft | 387 kts | 194° |
| 2026-04-24 22:14 | -49.52976 | -73.59008 | 32917 ft | 387 kts | 193° |
| 2026-04-24 22:14 | -49.58312 | -73.60118 | 32919 ft | 387 kts | 193° |
| 2026-04-24 22:15 | -49.63645 | -73.61232 | 32921 ft | 387 kts | 193° |
| 2026-04-24 22:15 | -49.68970 | -73.62345 | 32923 ft | 386 kts | 193° |
| 2026-04-24 22:16 | -49.74251 | -73.63457 | 32916 ft | 385 kts | 193° |
| 2026-04-24 22:16 | -49.79564 | -73.64577 | 32910 ft | 385 kts | 194° |
| 2026-04-24 22:17 | -49.84874 | -73.65693 | 32915 ft | 385 kts | 194° |
| 2026-04-24 22:17 | -49.90140 | -73.66799 | 32917 ft | 383 kts | 193° |
| 2026-04-24 22:18 | -49.95426 | -73.67915 | 32921 ft | 383 kts | 193° |
| 2026-04-24 22:18 | -50.00704 | -73.69036 | 32911 ft | 383 kts | 194° |
| 2026-04-24 22:19 | -50.05988 | -73.70160 | 32905 ft | 383 kts | 193° |
| 2026-04-24 22:19 | -50.11270 | -73.71282 | 32913 ft | 383 kts | 194° |
| 2026-04-24 22:20 | -50.16523 | -73.72417 | 32911 ft | 383 kts | 194° |
| 2026-04-24 22:20 | -50.21811 | -73.73554 | 32908 ft | 384 kts | 193° |
| 2026-04-24 22:21 | -50.27103 | -73.74679 | 32900 ft | 384 kts | 193° |
| 2026-04-24 22:21 | -50.32403 | -73.75805 | 32904 ft | 385 kts | 192° |
| 2026-04-24 22:21 | -50.35107 | -73.75850 | 32901 ft | 394 kts | 181° |
| 2026-04-24 22:22 | -50.37831 | -73.75002 | 32885 ft | 406 kts | 171° |
| 2026-04-24 22:22 | -50.40425 | -73.73235 | 32876 ft | 420 kts | 160° |
| 2026-04-24 22:22 | -50.42943 | -73.70883 | 32869 ft | 421 kts | 159° |
| 2026-04-24 22:23 | -50.47975 | -73.66171 | 32865 ft | 422 kts | 159° |
| 2026-04-24 22:23 | -50.53030 | -73.61449 | 32862 ft | 423 kts | 159° |
| 2026-04-24 22:24 | -50.58086 | -73.56703 | 32860 ft | 423 kts | 159° |
| 2026-04-24 22:24 | -50.63110 | -73.51975 | 32861 ft | 424 kts | 159° |
| 2026-04-24 22:25 | -50.68173 | -73.47199 | 32852 ft | 424 kts | 159° |
| 2026-04-24 22:25 | -50.73243 | -73.42422 | 32851 ft | 426 kts | 158° |
| 2026-04-24 22:26 | -50.78326 | -73.37614 | 32862 ft | 426 kts | 158° |
| 2026-04-24 22:26 | -50.83368 | -73.32811 | 32859 ft | 426 kts | 158° |
| 2026-04-24 22:27 | -50.88448 | -73.27960 | 32859 ft | 427 kts | 158° |
| 2026-04-24 22:27 | -50.93538 | -73.23094 | 32862 ft | 427 kts | 158° |
| 2026-04-24 22:28 | -50.98635 | -73.18226 | 32864 ft | 428 kts | 158° |
| 2026-04-24 22:28 | -51.03701 | -73.13361 | 32864 ft | 428 kts | 158° |
| 2026-04-24 22:29 | -51.11341 | -73.05992 | 32858 ft | 428 kts | 158° |
| 2026-04-24 22:29 | -51.16436 | -73.01079 | 32857 ft | 429 kts | 158° |
| 2026-04-24 22:30 | -51.21533 | -72.96139 | 32849 ft | 429 kts | 157° |
| 2026-04-24 22:30 | -51.26597 | -72.91211 | 32849 ft | 429 kts | 157° |
| 2026-04-24 22:31 | -51.31695 | -72.86217 | 32839 ft | 430 kts | 157° |
| 2026-04-24 22:31 | -51.36794 | -72.81212 | 32831 ft | 430 kts | 157° |
| 2026-04-24 22:32 | -51.41895 | -72.76187 | 32831 ft | 431 kts | 157° |
| 2026-04-24 22:32 | -51.46970 | -72.71182 | 32832 ft | 431 kts | 156° |
| 2026-04-24 22:33 | -51.52083 | -72.66139 | 32828 ft | 431 kts | 156° |
| 2026-04-24 22:33 | -51.57199 | -72.61071 | 32824 ft | 432 kts | 156° |
| 2026-04-24 22:34 | -51.62320 | -72.55986 | 32822 ft | 433 kts | 156° |
| 2026-04-24 22:34 | -51.67411 | -72.50926 | 32822 ft | 433 kts | 156° |
| 2026-04-24 22:35 | -51.72543 | -72.45797 | 32824 ft | 434 kts | 156° |
| 2026-04-24 22:35 | -51.77480 | -72.40017 | 32821 ft | 440 kts | 151° |
| 2026-04-24 22:36 | -51.82384 | -72.34053 | 32823 ft | 441 kts | 151° |
| 2026-04-24 22:36 | -51.87298 | -72.28070 | 32698 ft | 443 kts | 150° |
| 2026-04-24 22:37 | -51.89724 | -72.25105 | 32457 ft | 443 kts | 150° |
| 2026-04-24 22:37 | -51.92184 | -72.22096 | 31822 ft | 445 kts | 150° |
| 2026-04-24 22:37 | -51.94674 | -72.19052 | 30914 ft | 450 kts | 150° |
| 2026-04-24 22:37 | -51.97174 | -72.15985 | 30081 ft | 450 kts | 150° |
| 2026-04-24 22:38 | -51.99636 | -72.12944 | 29120 ft | 438 kts | 150° |
| 2026-04-24 22:38 | -52.02016 | -72.09986 | 28172 ft | 424 kts | 150° |
| 2026-04-24 22:38 | -52.04320 | -72.07115 | 27309 ft | 413 kts | 150° |
| 2026-04-24 22:38 | -52.06642 | -72.04249 | 26362 ft | 424 kts | 149° |
| 2026-04-24 22:39 | -52.08981 | -72.01372 | 25291 ft | 431 kts | 149° |
| 2026-04-24 22:39 | -52.11396 | -71.98423 | 24288 ft | 437 kts | 149° |
| 2026-04-24 22:39 | -52.13837 | -71.95437 | 23317 ft | 442 kts | 148° |
| 2026-04-24 22:39 | -52.16295 | -71.92404 | 22526 ft | 442 kts | 149° |
| 2026-04-24 22:40 | -52.18741 | -71.89382 | 21780 ft | 439 kts | 148° |
| 2026-04-24 22:40 | -52.21157 | -71.86377 | 21054 ft | 436 kts | 148° |
| 2026-04-24 22:40 | -52.23561 | -71.83381 | 20335 ft | 434 kts | 148° |
| 2026-04-24 22:40 | -52.25946 | -71.80402 | 19630 ft | 430 kts | 148° |
| 2026-04-24 22:41 | -52.28283 | -71.77477 | 18959 ft | 426 kts | 148° |
| 2026-04-24 22:41 | -52.30639 | -71.74542 | 18270 ft | 427 kts | 148° |
| 2026-04-24 22:41 | -52.32979 | -71.71619 | 17682 ft | 421 kts | 148° |
| 2026-04-24 22:41 | -52.34520 | -71.69688 | 17185 ft | 421 kts | 148° |
| 2026-04-24 22:42 | -52.37605 | -71.65814 | 16342 ft | 416 kts | 148° |
| 2026-04-24 22:42 | -52.39887 | -71.62934 | 15743 ft | 411 kts | 149° |
| 2026-04-24 22:42 | -52.42150 | -71.60112 | 15133 ft | 406 kts | 149° |
| 2026-04-24 22:42 | -52.44381 | -71.57307 | 14592 ft | 401 kts | 148° |
| 2026-04-24 22:43 | -52.46577 | -71.54536 | 14036 ft | 396 kts | 148° |
| 2026-04-24 22:43 | -52.48713 | -71.51835 | 13521 ft | 390 kts | 148° |
| 2026-04-24 22:43 | -52.50847 | -71.49134 | 12991 ft | 385 kts | 148° |
| 2026-04-24 22:43 | -52.52953 | -71.46468 | 12486 ft | 380 kts | 148° |
| 2026-04-24 22:44 | -52.55036 | -71.43826 | 11972 ft | 377 kts | 148° |
| 2026-04-24 22:44 | -52.57099 | -71.41206 | 11475 ft | 373 kts | 148° |
| 2026-04-24 22:44 | -52.59148 | -71.38605 | 11073 ft | 368 kts | 148° |
| 2026-04-24 22:44 | -52.61119 | -71.36097 | 10928 ft | 345 kts | 148° |
| 2026-04-24 22:45 | -52.62910 | -71.33797 | 10763 ft | 316 kts | 149° |
| 2026-04-24 22:45 | -52.64584 | -71.31646 | 10395 ft | 298 kts | 149° |
| 2026-04-24 22:45 | -52.66213 | -71.29575 | 10161 ft | 293 kts | 150° |
| 2026-04-24 22:45 | -52.67817 | -71.27512 | 9927 ft | 294 kts | 146° |
| 2026-04-24 22:46 | -52.69185 | -71.24956 | 9811 ft | 301 kts | 135° |
| 2026-04-24 22:46 | -52.70485 | -71.22252 | 9684 ft | 301 kts | 135° |
| 2026-04-24 22:46 | -52.71773 | -71.19537 | 9559 ft | 301 kts | 135° |
| 2026-04-24 22:46 | -52.73052 | -71.16819 | 9436 ft | 300 kts | 135° |
| 2026-04-24 22:47 | -52.74312 | -71.14143 | 9311 ft | 299 kts | 135° |
| 2026-04-24 22:47 | -52.75588 | -71.11434 | 9185 ft | 299 kts | 135° |
| 2026-04-24 22:47 | -52.76863 | -71.08729 | 9059 ft | 299 kts | 135° |
| 2026-04-24 22:47 | -52.78139 | -71.06019 | 8932 ft | 298 kts | 135° |
| 2026-04-24 22:48 | -52.79408 | -71.03312 | 8701 ft | 298 kts | 135° |
| 2026-04-24 22:48 | -52.80671 | -71.00611 | 8316 ft | 296 kts | 135° |
| 2026-04-24 22:48 | -52.81934 | -70.97927 | 7930 ft | 296 kts | 135° |
| 2026-04-24 22:48 | -52.83223 | -70.95295 | 7533 ft | 291 kts | 141° |
| 2026-04-24 22:49 | -52.84751 | -70.93214 | 7148 ft | 280 kts | 156° |
| 2026-04-24 22:49 | -52.86445 | -70.91883 | 6778 ft | 269 kts | 170° |
| 2026-04-24 22:49 | -52.88227 | -70.91066 | 6423 ft | 264 kts | 173° |
| 2026-04-24 22:49 | -52.89998 | -70.90274 | 6061 ft | 263 kts | 173° |
| 2026-04-24 22:50 | -52.91762 | -70.89472 | 5700 ft | 262 kts | 173° |
| 2026-04-24 22:50 | -52.93522 | -70.88748 | 5340 ft | 257 kts | 180° |
| 2026-04-24 22:50 | -52.95261 | -70.88753 | 5000 ft | 246 kts | 196° |
| 2026-04-24 22:50 | -52.96853 | -70.89543 | 4689 ft | 238 kts | 211° |
| 2026-04-24 22:51 | -52.98223 | -70.91011 | 4429 ft | 231 kts | 226° |
| 2026-04-24 22:51 | -52.99258 | -70.92972 | 4265 ft | 228 kts | 239° |
| 2026-04-24 22:51 | -53.00050 | -70.95264 | 4149 ft | 229 kts | 237° |
| 2026-04-24 22:51 | -53.01293 | -70.96930 | 4010 ft | 238 kts | 207° |
| 2026-04-24 22:52 | -53.02959 | -70.97301 | 3943 ft | 252 kts | 178° |
| 2026-04-24 22:52 | -53.04619 | -70.96152 | 3998 ft | 271 kts | 147° |
| 2026-04-24 22:52 | -53.05721 | -70.93534 | 4004 ft | 287 kts | 111° |
| 2026-04-24 22:52 | -53.05851 | -70.90198 | 4001 ft | 294 kts | 84° |
| 2026-04-24 22:53 | -53.05574 | -70.86816 | 4006 ft | 295 kts | 83° |
| 2026-04-24 22:53 | -53.05264 | -70.83445 | 4007 ft | 296 kts | 82° |
| 2026-04-24 22:53 | -53.04967 | -70.80109 | 4007 ft | 296 kts | 86° |
| 2026-04-24 22:53 | -53.04886 | -70.76704 | 4008 ft | 295 kts | 91° |
| 2026-04-24 22:54 | -53.04880 | -70.73300 | 4005 ft | 295 kts | 92° |
| 2026-04-24 22:54 | -53.04881 | -70.69890 | 4002 ft | 295 kts | 92° |
| 2026-04-24 22:54 | -53.04879 | -70.66487 | 3990 ft | 295 kts | 92° |
| 2026-04-24 22:54 | -53.04874 | -70.63078 | 3731 ft | 294 kts | 92° |
| 2026-04-24 22:55 | -53.04868 | -70.59697 | 3456 ft | 291 kts | 92° |
| 2026-04-24 22:55 | -53.04871 | -70.56359 | 3177 ft | 287 kts | 91° |
| 2026-04-24 22:55 | -53.04879 | -70.53080 | 3004 ft | 278 kts | 92° |
| 2026-04-24 22:55 | -53.04884 | -70.49994 | 3002 ft | 263 kts | 91° |
| 2026-04-24 22:56 | -53.04872 | -70.47053 | 3022 ft | 250 kts | 90° |
| 2026-04-24 22:56 | -53.04471 | -70.44288 | 3004 ft | 246 kts | 61° |
| 2026-04-24 22:56 | -53.03436 | -70.42114 | 3018 ft | 234 kts | 33° |
| 2026-04-24 22:56 | -53.02105 | -70.40952 | 3012 ft | 199 kts | 4° |
| 2026-04-24 22:57 | -53.00855 | -70.41067 | 2995 ft | 167 kts | 328° |
| 2026-04-24 22:57 | -52.99963 | -70.42115 | 3010 ft | 155 kts | 300° |
| 2026-04-24 22:57 | -52.99515 | -70.43742 | 3011 ft | 157 kts | 273° |
| 2026-04-24 22:57 | -52.99508 | -70.45542 | 3010 ft | 156 kts | 266° |
| 2026-04-24 22:58 | -52.99531 | -70.47333 | 3004 ft | 157 kts | 265° |
| 2026-04-24 22:58 | -52.99557 | -70.49156 | 3001 ft | 158 kts | 266° |
| 2026-04-24 22:58 | -52.99585 | -70.50976 | 3001 ft | 157 kts | 266° |
| 2026-04-24 22:58 | -52.99614 | -70.52792 | 3000 ft | 157 kts | 266° |
| 2026-04-24 22:59 | -52.99643 | -70.54609 | 3011 ft | 158 kts | 266° |
| 2026-04-24 22:59 | -52.99671 | -70.56413 | 3006 ft | 156 kts | 266° |
| 2026-04-24 22:59 | -52.99727 | -70.60003 | 2819 ft | 155 kts | 266° |
| 2026-04-24 23:00 | -52.99753 | -70.61792 | 2637 ft | 155 kts | 266° |
| 2026-04-24 23:00 | -52.99780 | -70.63559 | 2436 ft | 155 kts | 266° |
| 2026-04-24 23:00 | -52.99806 | -70.65312 | 2252 ft | 146 kts | 267° |
| 2026-04-24 23:00 | -52.99830 | -70.66938 | 2057 ft | 138 kts | 267° |
| 2026-04-24 23:01 | -52.99853 | -70.68508 | 1881 ft | 135 kts | 267° |
| 2026-04-24 23:01 | -52.99874 | -70.70020 | 1710 ft | 129 kts | 268° |
| 2026-04-24 23:01 | -52.99896 | -70.71495 | 1534 ft | 127 kts | 268° |
| 2026-04-24 23:01 | -52.99917 | -70.72964 | 1367 ft | 127 kts | 269° |
| 2026-04-24 23:02 | -52.99939 | -70.74428 | 1202 ft | 127 kts | 268° |
| 2026-04-24 23:02 | -52.99953 | -70.75390 | 1093 ft | 126 kts | 269° |
| 2026-04-24 23:02 | -52.99985 | -70.77319 | 876 ft | 127 kts | 268° |
| 2026-04-24 23:02 | -53.00001 | -70.78779 | 699 ft | 127 kts | 270° |
| 2026-04-24 23:03 | -53.00025 | -70.80233 | 539 ft | 126 kts | 267° |
| 2026-04-24 23:03 | -53.00047 | -70.81693 | 393 ft | 127 kts | 268° |
| 2026-04-24 23:03 | -53.00067 | -70.83163 | 208 ft | 127 kts | 270° |
| 2026-04-24 23:03 | -53.00069 | -70.84574 | 150 ft | 105 kts | 266° |
| 2026-04-24 23:04 | -53.00089 | -70.85462 | 146 ft | 52 kts | 269° |
| 2026-04-24 23:04 | -53.00095 | -70.85932 | 149 ft | 37 kts | 268° |
| 2026-04-24 23:04 | -53.00103 | -70.86299 | 152 ft | 16 kts | 258° |
| 2026-04-24 23:04 | -53.00141 | -70.86314 | 150 ft | 6 kts | 155° |
| 2026-04-24 23:05 | -53.00180 | -70.86253 | 149 ft | 12 kts | 136° |
| 2026-04-24 23:05 | -53.00239 | -70.86165 | 149 ft | 11 kts | 140° |
| 2026-04-24 23:05 | -53.00270 | -70.86061 | 148 ft | 10 kts | 94° |
| 2026-04-24 23:05 | -53.00268 | -70.85953 | 148 ft | 9 kts | 88° |
| 2026-04-24 23:06 | -53.00266 | -70.85856 | 148 ft | 8 kts | 88° |
| 2026-04-24 23:06 | -53.00265 | -70.85774 | 147 ft | 7 kts | 89° |
| 2026-04-24 23:06 | -53.00264 | -70.85636 | 147 ft | 19 kts | 89° |
| 2026-04-24 23:06 | -53.00260 | -70.85401 | 147 ft | 14 kts | 89° |
| 2026-04-24 23:07 | -53.00259 | -70.85246 | 148 ft | 13 kts | 88° |
| 2026-04-24 23:07 | -53.00257 | -70.85107 | 148 ft | 11 kts | 88° |
| 2026-04-24 23:07 | -53.00255 | -70.84999 | 149 ft | 8 kts | 88° |
| 2026-04-24 23:07 | -53.00253 | -70.84907 | 148 ft | 8 kts | 88° |
| 2026-04-24 23:08 | -53.00253 | -70.84799 | 148 ft | 12 kts | 101° |
| 2026-04-24 23:08 | -53.00304 | -70.84706 | 148 ft | 10 kts | 146° |
| 2026-04-24 23:08 | -53.00360 | -70.84647 | 147 ft | 8 kts | 148° |
| 2026-04-24 23:08 | -53.00382 | -70.84585 | 147 ft | 6 kts | 99° |
| 2026-04-24 23:09 | -53.00382 | -70.84512 | 147 ft | 10 kts | 89° |
| 2026-04-24 23:09 | -53.00381 | -70.84397 | 147 ft | 9 kts | 91° |
| 2026-04-24 23:09 | -53.00417 | -70.84366 | 147 ft | 5 kts | 173° |
| 2026-04-24 23:09 | -53.00440 | -70.84364 | 147 ft | 1 kts | 178° |
| 2026-04-24 23:10 | -53.00443 | -70.84364 | 147 ft | 2 kts | 178° |
| 2026-04-24 23:10 | -53.00444 | -70.84364 | 147 ft | 0 kts | 178° |